createdAt,value
2022-10-13T00:00:19.186Z,6.55
2022-10-13T00:02:52.171Z,6.68
2022-10-13T00:05:25.163Z,6.75
2022-10-13T00:07:51.903Z,8.32
2022-10-13T00:10:25.182Z,7.03
2022-10-13T00:12:52.220Z,6.97
2022-10-13T00:15:26.207Z,6.63
2022-10-13T00:17:52.999Z,7.72
2022-10-13T00:20:26.191Z,7.28
2022-10-13T00:22:52.991Z,6.63
2022-10-13T00:25:26.224Z,7.18
2022-10-13T00:27:53.291Z,7.35
2022-10-13T00:30:26.180Z,9.30
2022-10-13T00:32:53.035Z,6.78
2022-10-13T00:35:26.194Z,7.35
2022-10-13T00:37:53.649Z,7.53
2022-10-13T00:40:27.239Z,7.20
2022-10-13T00:42:54.065Z,6.13
2022-10-13T00:45:26.961Z,6.38
2022-10-13T00:48:07.256Z,7.80
2022-10-13T00:50:38.109Z,8.10
2022-10-13T00:53:12.286Z,7.50
2022-10-13T00:55:49.223Z,8.50
2022-10-13T00:58:26.271Z,8.27
2022-10-13T01:01:00.311Z,7.88
2022-10-13T01:03:27.396Z,7.47
2022-10-13T01:06:04.252Z,6.78
2022-10-13T01:08:31.638Z,6.95
2022-10-13T01:11:24.286Z,7.95
2022-10-13T01:14:01.384Z,8.00
2022-10-13T01:17:03.317Z,8.05
2022-10-13T01:20:17.449Z,7.68
2022-10-13T01:23:02.802Z,7.88
2022-10-13T01:26:22.315Z,7.28
2022-10-13T01:29:24.761Z,9.30
2022-10-13T01:32:26.280Z,10.65
2022-10-13T01:35:37.802Z,10.88
2022-10-13T01:38:36.288Z,10.13
2022-10-13T01:41:33.003Z,8.05
2022-10-13T01:44:22.346Z,8.43
2022-10-13T01:46:51.489Z,9.20
2022-10-13T01:49:29.343Z,7.78
2022-10-13T01:52:07.312Z,6.53
2022-10-13T01:54:35.180Z,7.40
2022-10-13T01:57:02.084Z,7.32
2022-10-13T01:59:43.333Z,8.60
2022-10-13T02:02:28.400Z,7.65
2022-10-13T02:05:18.952Z,7.88
2022-10-13T02:08:08.322Z,9.57
2022-10-13T02:11:10.375Z,9.35
2022-10-13T02:13:40.469Z,11.77
2022-10-13T02:16:14.377Z,9.45
2022-10-13T02:18:41.880Z,9.85
2022-10-13T02:21:16.368Z,10.48
2022-10-13T02:23:50.374Z,11.00
2022-10-13T02:26:17.347Z,11.00
2022-10-13T02:28:44.297Z,10.68
2022-10-13T02:31:17.364Z,9.82
2022-10-13T02:33:44.184Z,9.88
2022-10-13T02:36:17.414Z,7.47
2022-10-13T02:38:44.153Z,6.53
2022-10-13T02:41:10.978Z,7.00
2022-10-13T02:43:45.495Z,6.63
2022-10-13T02:46:12.214Z,8.18
2022-10-13T02:48:45.406Z,7.95
2022-10-13T02:51:18.447Z,7.57
2022-10-13T02:53:51.396Z,7.40
2022-10-13T02:56:19.274Z,7.70
2022-10-13T02:58:52.397Z,7.10
2022-10-13T03:01:19.251Z,7.70
2022-10-13T03:03:46.076Z,9.32
2022-10-13T03:06:19.438Z,8.90
2022-10-13T03:08:52.485Z,9.50
2022-10-13T03:11:19.394Z,9.25
2022-10-13T03:13:52.647Z,9.88
2022-10-13T03:16:25.452Z,9.02
2022-10-13T03:18:58.479Z,8.52
2022-10-13T03:21:25.686Z,9.13
2022-10-13T03:23:58.528Z,8.02
2022-10-13T03:26:25.366Z,7.72
2022-10-13T03:28:59.464Z,7.22
2022-10-13T03:31:26.290Z,7.18
2022-10-13T03:33:53.754Z,6.22
2022-10-13T03:36:27.507Z,7.30
2022-10-13T03:39:00.468Z,7.72
2022-10-13T03:41:27.215Z,6.32
2022-10-13T03:44:00.473Z,6.97
2022-10-13T03:46:35.493Z,8.07
2022-10-13T03:49:02.225Z,9.30
2022-10-13T03:51:35.499Z,8.73
2022-10-13T03:54:08.544Z,8.70
2022-10-13T03:56:35.843Z,8.48
2022-10-13T03:59:04.887Z,9.90
2022-10-13T04:01:39.555Z,8.98
2022-10-13T04:04:07.874Z,8.38
2022-10-13T04:06:41.536Z,8.00
2022-10-13T04:09:09.538Z,7.00
2022-10-13T04:11:42.496Z,7.25
2022-10-13T04:14:09.246Z,7.72
2022-10-13T04:16:42.522Z,9.05
2022-10-13T04:19:12.680Z,7.50
2022-10-13T04:21:46.573Z,7.70
2022-10-13T04:24:14.301Z,7.63
2022-10-13T04:26:47.574Z,7.43
2022-10-13T04:29:14.388Z,7.85
2022-10-13T04:31:50.563Z,8.05
2022-10-13T04:34:23.580Z,7.63
2022-10-13T04:36:58.601Z,9.13
2022-10-13T04:39:31.574Z,7.30
2022-10-13T04:42:04.568Z,7.35
2022-10-13T04:44:31.296Z,8.15
2022-10-13T04:47:04.621Z,7.50
2022-10-13T04:49:31.987Z,8.32
2022-10-13T04:52:05.599Z,9.30
2022-10-13T04:54:32.390Z,9.57
2022-10-13T04:56:59.343Z,8.07
2022-10-13T04:59:32.644Z,9.10
2022-10-13T05:01:59.408Z,8.73
2022-10-13T05:04:26.798Z,7.28
2022-10-13T05:07:18.222Z,8.40
2022-10-13T05:09:45.401Z,8.43
2022-10-13T05:17:42.659Z,8.55
2022-10-13T05:20:16.657Z,9.23
2022-10-13T05:22:50.618Z,7.93
2022-10-13T05:25:23.692Z,8.65
2022-10-13T05:28:03.635Z,9.20
2022-10-13T05:30:30.534Z,7.82
2022-10-13T05:33:04.646Z,9.93
2022-10-13T05:35:31.529Z,8.70
2022-10-13T05:37:58.301Z,9.45
2022-10-13T05:40:31.668Z,12.10
2022-10-13T05:43:04.758Z,10.57
2022-10-13T05:45:33.448Z,12.43
2022-10-13T05:48:06.701Z,12.82
2022-10-13T05:50:34.725Z,11.25
2022-10-13T05:53:07.711Z,10.27
2022-10-13T05:55:34.497Z,10.45
2022-10-13T05:58:08.695Z,9.70
2022-10-13T06:00:35.669Z,9.10
2022-10-13T06:03:18.757Z,7.28
2022-10-13T06:05:47.539Z,8.02
2022-10-13T06:08:21.726Z,7.93
2022-10-13T06:10:48.526Z,8.75
2022-10-13T06:13:21.701Z,7.75
2022-10-13T06:15:48.462Z,7.50
2022-10-13T06:18:21.725Z,6.40
2022-10-13T06:20:48.432Z,6.97
2022-10-13T06:23:26.746Z,6.72
2022-10-13T06:25:54.043Z,6.80
2022-10-13T06:28:22.364Z,7.07
2022-10-13T06:31:00.761Z,7.20
2022-10-13T06:33:39.748Z,7.82
2022-10-13T06:36:07.095Z,6.95
2022-10-13T06:38:34.000Z,8.40
2022-10-13T06:41:13.746Z,7.80
2022-10-13T06:43:47.758Z,9.48
2022-10-13T06:46:20.756Z,9.65
2022-10-13T06:48:57.783Z,10.45
2022-10-13T06:51:30.787Z,12.23
2022-10-13T06:54:03.786Z,11.55
2022-10-13T06:56:36.977Z,10.70
2022-10-13T06:59:05.016Z,11.60
2022-10-13T07:01:31.987Z,10.65
2022-10-13T07:04:05.830Z,13.07
2022-10-13T07:06:32.774Z,12.68
2022-10-13T07:09:02.380Z,12.18
2022-10-13T07:11:35.791Z,12.55
2022-10-13T07:14:03.196Z,14.00
2022-10-13T07:16:36.850Z,13.23
2022-10-13T07:19:03.633Z,14.27
2022-10-13T07:21:36.847Z,15.85
2022-10-13T07:24:11.892Z,20.10
2022-10-13T07:26:45.868Z,18.90
2022-10-13T07:29:12.630Z,16.73
2022-10-13T07:31:45.874Z,17.80
2022-10-13T07:34:20.876Z,17.65
2022-10-13T07:36:53.858Z,16.85
2022-10-13T07:39:21.116Z,18.30
2022-10-13T07:41:54.892Z,19.70
2022-10-13T07:44:21.662Z,15.82
2022-10-13T07:46:54.870Z,14.68
2022-10-13T07:49:22.786Z,13.65
2022-10-13T07:51:55.861Z,15.45
2022-10-13T07:54:25.158Z,15.18
2022-10-13T07:56:56.057Z,15.17
2022-10-13T07:59:29.895Z,14.23
2022-10-13T08:02:02.933Z,17.77
2022-10-13T08:04:31.900Z,14.43
2022-10-13T08:07:04.994Z,12.70
2022-10-13T08:09:31.904Z,11.43
2022-10-13T08:12:04.899Z,15.15
2022-10-13T08:14:38.083Z,12.88
2022-10-13T08:17:18.242Z,14.57
2022-10-13T08:19:51.961Z,16.10
2022-10-13T08:22:18.753Z,16.80
2022-10-13T08:24:51.940Z,14.40
2022-10-13T08:27:26.662Z,15.73
2022-10-13T08:30:11.000Z,14.98
2022-10-13T08:32:39.150Z,13.05
2022-10-13T08:35:13.005Z,12.10
2022-10-13T08:37:45.994Z,10.63
2022-10-13T08:40:27.005Z,11.70
2022-10-13T08:42:58.078Z,12.68
2022-10-13T08:45:41.207Z,12.27
2022-10-13T08:48:18.420Z,10.63
2022-10-13T08:50:55.950Z,12.98
2022-10-13T08:53:41.203Z,11.25
2022-10-13T08:56:21.991Z,13.15
2022-10-13T08:58:51.054Z,14.57
2022-10-13T09:01:33.203Z,15.27
2022-10-13T09:04:48.033Z,16.52
2022-10-13T09:07:28.851Z,15.73
2022-10-13T09:10:03.027Z,13.93
2022-10-13T09:12:31.459Z,11.90
2022-10-13T09:15:10.434Z,12.57
2022-10-13T09:17:39.267Z,12.70
2022-10-13T09:20:32.032Z,15.27
2022-10-13T09:23:13.044Z,12.30
2022-10-13T09:25:43.940Z,12.43
2022-10-13T09:28:39.092Z,11.77
2022-10-13T09:31:26.025Z,13.13
2022-10-13T09:34:27.181Z,14.00
2022-10-13T09:37:09.998Z,11.70
2022-10-13T09:39:37.018Z,13.90
2022-10-13T09:42:34.047Z,12.63
2022-10-13T09:45:12.172Z,14.85
2022-10-13T09:47:46.030Z,14.65
2022-10-13T09:50:26.748Z,11.35
2022-10-13T09:53:01.064Z,10.73
2022-10-13T09:55:40.060Z,11.63
2022-10-13T09:58:21.108Z,12.15
2022-10-13T10:00:51.489Z,11.35
2022-10-13T10:03:33.086Z,12.70
2022-10-13T10:06:14.093Z,11.20
2022-10-13T10:09:04.181Z,8.70
2022-10-13T10:11:50.130Z,7.65
2022-10-13T10:14:40.066Z,10.07
2022-10-13T10:17:09.505Z,7.97
2022-10-13T10:20:12.120Z,8.93
2022-10-13T10:22:59.820Z,9.45
2022-10-13T10:25:56.133Z,8.90
2022-10-13T10:29:15.112Z,8.57
2022-10-13T10:32:02.127Z,7.30
2022-10-13T10:34:45.329Z,7.43
2022-10-13T10:37:27.130Z,10.65
2022-10-13T10:40:35.019Z,9.40
2022-10-13T10:43:15.141Z,11.02
2022-10-13T10:45:51.195Z,10.43
2022-10-13T10:48:19.976Z,8.48
2022-10-13T10:50:55.130Z,8.82
2022-10-13T10:53:48.131Z,7.93
2022-10-13T10:56:49.156Z,8.57
2022-10-13T10:59:52.051Z,7.75
2022-10-13T11:03:01.233Z,6.75
2022-10-13T11:06:33.172Z,6.55
2022-10-13T11:08:59.965Z,7.45
2022-10-13T11:11:36.601Z,11.15
2022-10-13T11:14:07.306Z,11.07
2022-10-13T11:16:45.236Z,9.45
2022-10-13T11:19:39.215Z,9.25
2022-10-13T11:22:06.301Z,9.82
2022-10-13T11:24:48.185Z,8.55
2022-10-13T11:27:36.831Z,8.20
2022-10-13T11:30:11.199Z,7.60
2022-10-13T11:32:42.880Z,8.85
2022-10-13T11:35:19.205Z,8.38
2022-10-13T11:38:06.682Z,11.90
2022-10-13T11:41:05.116Z,9.95
2022-10-13T11:43:46.213Z,8.48
2022-10-13T11:46:49.244Z,8.70
2022-10-13T11:49:37.261Z,10.32
2022-10-13T11:52:27.536Z,8.40
2022-10-13T11:55:08.253Z,7.95
2022-10-13T11:57:41.250Z,8.15
2022-10-13T12:00:18.980Z,9.57
2022-10-13T12:02:58.309Z,8.93
2022-10-13T12:05:28.095Z,7.90
2022-10-13T12:08:07.254Z,8.00
2022-10-13T12:10:43.274Z,6.75
2022-10-13T12:13:32.914Z,7.15
2022-10-13T12:16:12.290Z,8.98
2022-10-13T12:18:47.350Z,10.68
2022-10-13T12:21:22.687Z,9.82
2022-10-13T12:23:58.312Z,12.38
2022-10-13T12:26:25.775Z,8.82
2022-10-13T12:29:10.303Z,7.72
2022-10-13T12:31:41.353Z,7.28
2022-10-13T12:34:29.301Z,8.20
2022-10-13T12:36:57.640Z,7.13
2022-10-13T12:39:32.300Z,9.35
2022-10-13T12:42:02.181Z,9.43
2022-10-13T12:44:38.300Z,7.35
2022-10-13T12:47:11.327Z,11.38
2022-10-13T12:49:45.349Z,8.00
2022-10-13T12:52:24.322Z,8.45
2022-10-13T12:55:01.480Z,9.07
2022-10-13T12:57:39.012Z,8.77
2022-10-13T13:00:27.455Z,7.75
2022-10-13T13:03:04.345Z,6.97
2022-10-13T13:05:53.607Z,7.03
2022-10-13T13:08:30.268Z,7.70
2022-10-13T13:11:13.360Z,8.05
2022-10-13T13:13:40.144Z,8.43
2022-10-13T13:16:28.428Z,7.82
2022-10-13T13:18:55.665Z,6.57
2022-10-13T13:21:29.416Z,6.63
2022-10-13T13:24:04.302Z,6.50
2022-10-13T13:26:46.178Z,8.05
2022-10-13T13:29:19.435Z,10.43
2022-10-13T13:31:46.190Z,8.23
2022-10-13T13:34:22.368Z,10.05
2022-10-13T13:36:51.391Z,8.65
2022-10-13T13:39:24.430Z,9.93
2022-10-13T13:42:12.421Z,8.85
2022-10-13T13:44:52.432Z,9.68
2022-10-13T13:47:22.726Z,9.40
2022-10-13T13:49:58.422Z,8.45
2022-10-13T13:52:25.917Z,9.75
2022-10-13T13:54:59.411Z,9.68
2022-10-13T13:57:26.400Z,9.15
2022-10-13T13:59:54.203Z,10.45
2022-10-13T14:02:35.485Z,11.15
2022-10-13T14:05:08.563Z,13.48
2022-10-13T14:07:42.427Z,12.60
2022-10-13T14:10:17.509Z,12.40
2022-10-13T14:12:50.461Z,11.73
2022-10-13T14:15:17.494Z,11.30
2022-10-13T14:17:50.491Z,10.05
2022-10-13T14:20:23.517Z,9.30
2022-10-13T14:22:56.430Z,13.68
2022-10-13T14:25:23.439Z,18.27
2022-10-13T14:27:56.616Z,15.23
2022-10-13T14:30:29.521Z,13.18
2022-10-13T14:32:56.492Z,12.27
2022-10-13T14:35:29.482Z,13.82
2022-10-13T14:37:56.340Z,12.02
2022-10-13T14:40:29.503Z,10.70
2022-10-13T14:42:56.380Z,12.77
2022-10-13T14:45:23.128Z,13.90
2022-10-13T14:47:59.532Z,12.85
2022-10-13T14:50:26.330Z,13.80
2022-10-13T14:52:59.528Z,12.30
2022-10-13T14:55:26.245Z,13.30
2022-10-13T14:57:59.522Z,11.40
2022-10-13T15:00:26.415Z,10.55
2022-10-13T15:02:59.523Z,12.63
2022-10-13T15:05:26.419Z,10.60
2022-10-13T15:07:59.638Z,10.40
2022-10-13T15:10:26.458Z,11.48
2022-10-13T15:12:59.527Z,10.02
2022-10-13T15:15:26.262Z,10.23
2022-10-13T15:17:59.591Z,11.52
2022-10-13T15:20:26.527Z,9.43
2022-10-13T15:23:00.619Z,8.68
2022-10-13T15:25:33.560Z,8.90
2022-10-13T15:28:06.739Z,9.32
2022-10-13T15:30:40.590Z,14.30
2022-10-13T15:33:07.358Z,11.10
2022-10-13T15:35:40.586Z,10.18
2022-10-13T15:38:07.429Z,10.98
2022-10-13T15:40:42.556Z,10.73
2022-10-13T15:43:16.582Z,8.73
2022-10-13T15:45:59.573Z,10.32
2022-10-13T15:48:32.594Z,9.85
2022-10-13T15:51:00.056Z,9.60
2022-10-13T15:53:27.387Z,8.57
2022-10-13T15:56:01.628Z,7.93
2022-10-13T15:58:34.617Z,9.48
2022-10-13T16:01:01.619Z,9.20
2022-10-13T16:03:29.851Z,13.25
2022-10-13T16:06:03.677Z,11.05
2022-10-13T16:08:37.660Z,9.20
2022-10-13T16:11:09.113Z,9.10
2022-10-13T16:13:42.670Z,11.57
2022-10-13T16:16:09.455Z,9.00
2022-10-13T16:18:44.732Z,8.75
2022-10-13T16:21:18.817Z,10.07
2022-10-13T16:23:53.639Z,10.52
2022-10-13T16:26:28.035Z,8.52
2022-10-13T16:29:02.672Z,7.65
2022-10-13T16:31:29.487Z,6.97
2022-10-13T16:34:03.741Z,6.78
2022-10-13T16:36:36.731Z,6.00
2022-10-13T16:39:09.723Z,5.28
2022-10-13T16:41:43.732Z,6.13
2022-10-13T16:44:10.723Z,5.10
2022-10-13T16:46:47.740Z,6.18
2022-10-13T16:49:14.539Z,5.00
2022-10-13T16:51:47.730Z,4.55
2022-10-13T16:54:14.476Z,4.57
2022-10-13T16:56:47.717Z,4.22
2022-10-13T16:59:14.560Z,4.60
2022-10-13T17:01:41.403Z,3.80
2022-10-13T17:04:18.412Z,4.25
2022-10-13T17:06:47.995Z,4.07
2022-10-13T17:09:21.726Z,4.13
2022-10-13T17:11:54.690Z,4.05
2022-10-13T17:14:21.716Z,3.85
2022-10-13T17:16:57.707Z,3.78
2022-10-13T17:19:31.826Z,4.57
2022-10-13T17:22:05.750Z,4.40
2022-10-13T17:24:39.725Z,5.00
2022-10-13T17:27:12.815Z,4.85
2022-10-13T17:29:45.760Z,5.10
2022-10-13T17:32:14.567Z,4.95
2022-10-13T17:34:47.769Z,4.60
2022-10-13T17:37:21.059Z,5.15
2022-10-13T17:39:50.237Z,4.85
2022-10-13T17:42:16.993Z,5.65
2022-10-13T17:44:50.883Z,5.97
2022-10-13T17:47:18.025Z,6.97
2022-10-13T17:49:45.046Z,6.38
2022-10-13T17:52:18.788Z,6.53
2022-10-13T17:54:51.807Z,7.00
2022-10-13T17:57:24.838Z,8.23
2022-10-13T17:59:52.221Z,6.72
2022-10-13T18:02:25.888Z,8.70
2022-10-13T18:04:52.741Z,7.97
2022-10-13T18:07:19.802Z,9.60
2022-10-13T18:09:53.801Z,8.00
2022-10-13T18:12:27.835Z,8.88
2022-10-13T18:14:54.606Z,8.43
2022-10-13T18:17:27.811Z,7.53
2022-10-13T18:19:54.646Z,6.50
2022-10-13T18:22:28.792Z,8.60
2022-10-13T18:24:57.244Z,7.63
2022-10-13T18:27:30.796Z,7.55
2022-10-13T18:29:59.065Z,8.13
2022-10-13T18:32:32.862Z,8.05
2022-10-13T18:35:05.823Z,7.20
2022-10-13T18:37:32.707Z,7.68
2022-10-13T18:40:05.880Z,7.60
2022-10-13T18:42:32.876Z,7.25
2022-10-13T18:44:59.694Z,6.55
2022-10-13T18:47:32.862Z,7.57
2022-10-13T18:50:05.862Z,8.00
2022-10-13T18:52:32.659Z,12.52
2022-10-13T18:55:05.885Z,9.15
2022-10-13T18:57:38.918Z,9.75
2022-10-13T19:00:13.925Z,8.82
2022-10-13T19:02:40.968Z,9.02
2022-10-13T19:05:08.026Z,7.32
2022-10-13T19:07:40.903Z,8.27
2022-10-13T19:10:14.901Z,7.93
2022-10-13T19:12:42.314Z,8.05
2022-10-13T19:15:15.899Z,8.63
2022-10-13T19:17:42.647Z,7.72
2022-10-13T19:20:10.680Z,7.90
2022-10-13T19:22:43.893Z,7.50
2022-10-13T19:25:10.627Z,7.47
2022-10-13T19:27:50.922Z,8.50
2022-10-13T19:30:18.254Z,9.02
2022-10-13T19:32:57.922Z,8.02
2022-10-13T19:35:24.778Z,8.50
2022-10-13T19:37:57.938Z,9.25
2022-10-13T19:40:30.935Z,8.30
2022-10-13T19:42:57.638Z,9.18
2022-10-13T19:45:30.962Z,9.75
2022-10-13T19:48:03.945Z,9.07
2022-10-13T19:50:33.586Z,8.68
2022-10-13T19:53:06.979Z,9.35
2022-10-13T19:55:47.231Z,10.82
2022-10-13T19:58:23.964Z,10.43
2022-10-13T20:01:04.063Z,8.38
2022-10-13T20:03:30.963Z,10.77
2022-10-13T20:06:11.022Z,11.70
2022-10-13T20:08:37.866Z,11.48
2022-10-13T20:11:09.925Z,11.68
2022-10-13T20:13:44.000Z,10.68
2022-10-13T20:16:13.658Z,10.73
2022-10-13T20:18:41.653Z,10.95
2022-10-13T20:21:18.032Z,10.60
2022-10-13T20:23:44.787Z,11.18
2022-10-13T20:26:19.018Z,11.40
2022-10-13T20:28:54.108Z,11.90
2022-10-13T20:31:22.200Z,12.27
2022-10-13T20:33:52.981Z,12.57
2022-10-13T20:36:26.035Z,11.13
2022-10-13T20:39:00.081Z,12.05
2022-10-13T20:41:36.036Z,11.80
2022-10-13T20:44:02.876Z,12.57
2022-10-13T20:46:36.047Z,12.15
2022-10-13T20:49:11.957Z,12.43
2022-10-13T20:51:47.024Z,12.95
2022-10-13T20:54:22.049Z,14.70
2022-10-13T20:56:49.936Z,13.02
2022-10-13T20:59:23.050Z,13.55
2022-10-13T21:01:50.031Z,14.18
2022-10-13T21:04:23.064Z,12.88
2022-10-13T21:06:49.908Z,12.65
2022-10-13T21:09:23.080Z,15.15
2022-10-13T21:11:56.089Z,16.05
2022-10-13T21:14:22.807Z,14.68
2022-10-13T21:16:56.103Z,15.18
2022-10-13T21:19:23.050Z,13.98
2022-10-13T21:21:49.876Z,14.57
2022-10-13T21:24:23.162Z,14.27
2022-10-13T21:26:50.047Z,14.77
2022-10-13T21:29:17.008Z,14.57
2022-10-13T21:31:50.125Z,15.00
2022-10-13T21:34:23.981Z,15.63
2022-10-13T21:36:57.122Z,15.15
2022-10-13T21:39:23.895Z,15.40
2022-10-13T21:41:57.150Z,13.57
2022-10-13T21:44:31.204Z,15.23
2022-10-13T21:46:58.074Z,14.57
2022-10-13T21:49:31.153Z,14.57
2022-10-13T21:51:57.865Z,14.20
2022-10-13T21:54:24.607Z,14.40
2022-10-13T21:56:58.129Z,14.23
2022-10-13T21:59:31.182Z,16.15
2022-10-13T22:01:57.911Z,16.63
2022-10-13T22:04:31.155Z,15.63
2022-10-13T22:06:57.855Z,15.02
2022-10-13T22:09:31.201Z,14.82
2022-10-13T22:12:05.178Z,15.50
2022-10-13T22:14:31.954Z,14.40
2022-10-13T22:17:05.166Z,14.90
2022-10-13T22:19:38.189Z,15.32
2022-10-13T22:22:04.965Z,14.88
2022-10-13T22:24:31.792Z,14.60
2022-10-13T22:27:05.191Z,14.82
2022-10-13T22:29:38.257Z,16.13
2022-10-13T22:32:11.199Z,14.73
2022-10-13T22:34:37.924Z,15.70
2022-10-13T22:37:11.202Z,15.77
2022-10-13T22:39:38.006Z,16.13
2022-10-13T22:42:04.761Z,17.42
2022-10-13T22:44:38.215Z,14.93
2022-10-13T22:47:05.019Z,13.93
2022-10-13T22:49:38.273Z,15.23
2022-10-13T22:52:05.096Z,14.77
2022-10-13T22:54:38.304Z,15.88
2022-10-13T22:57:11.250Z,13.80
2022-10-13T22:59:44.263Z,14.95
2022-10-13T23:02:17.537Z,15.05
2022-10-13T23:04:51.343Z,15.20
2022-10-13T23:07:18.286Z,13.68
2022-10-13T23:09:45.185Z,14.45
2022-10-13T23:12:18.274Z,15.20
2022-10-13T23:14:51.287Z,14.57
2022-10-13T23:17:18.080Z,14.10
2022-10-13T23:19:51.278Z,14.88
2022-10-13T23:22:18.008Z,12.77
2022-10-13T23:24:51.332Z,13.25
2022-10-13T23:27:18.120Z,12.45
2022-10-13T23:29:51.283Z,13.95
2022-10-13T23:32:25.343Z,12.00
2022-10-13T23:34:52.233Z,12.52
2022-10-13T23:37:25.526Z,11.02
2022-10-13T23:39:52.351Z,12.52
2022-10-13T23:42:24.551Z,11.30
2022-10-13T23:44:57.321Z,12.18
2022-10-13T23:47:30.301Z,11.38
2022-10-13T23:50:03.305Z,11.57
2022-10-13T23:52:30.030Z,10.02
2022-10-13T23:55:03.324Z,11.93
2022-10-13T23:57:30.431Z,11.57
